createdAt,value
2018-11-11T00:01:11.020Z,19.23
2018-11-11T00:03:39.947Z,17.77
2018-11-11T00:06:08.889Z,18.07
2018-11-11T00:08:37.863Z,19.47
2018-11-11T00:11:06.895Z,18.40
2018-11-11T00:13:35.774Z,18.77
2018-11-11T00:16:04.700Z,16.80
2018-11-11T00:18:34.892Z,17.20
2018-11-11T00:21:03.886Z,16.70
2018-11-11T00:23:32.858Z,16.83
2018-11-11T00:26:01.763Z,18.37
2018-11-11T00:28:30.724Z,19.43
2018-11-11T00:30:59.574Z,23.40
2018-11-11T00:33:28.543Z,18.83
2018-11-11T00:35:57.450Z,17.57
2018-11-11T00:38:26.309Z,17.17
2018-11-11T00:40:55.254Z,16.00
2018-11-11T00:43:24.283Z,15.27
2018-11-11T00:45:53.159Z,14.43
2018-11-11T00:48:22.028Z,15.53
2018-11-11T00:50:50.955Z,14.50
2018-11-11T00:53:20.472Z,14.43
2018-11-11T00:55:49.603Z,14.67
2018-11-11T00:58:18.528Z,14.80
2018-11-11T01:00:47.495Z,13.43
2018-11-11T01:03:16.416Z,15.20
2018-11-11T01:05:45.321Z,15.17
2018-11-11T01:08:14.267Z,21.03
2018-11-11T01:10:43.200Z,24.43
2018-11-11T01:13:12.219Z,25.60
2018-11-11T01:15:41.187Z,21.83
2018-11-11T01:18:10.173Z,19.87
2018-11-11T01:20:39.074Z,19.00
2018-11-11T01:23:08.029Z,17.80
2018-11-11T01:25:36.949Z,17.20
2018-11-11T01:28:06.010Z,17.07
2018-11-11T01:30:34.887Z,18.43
2018-11-11T01:33:03.744Z,17.67
2018-11-11T01:35:32.713Z,17.37
2018-11-11T01:38:01.572Z,17.03
2018-11-11T01:40:30.458Z,17.20
2018-11-11T01:42:59.471Z,16.57
2018-11-11T01:45:28.371Z,17.57
2018-11-11T01:47:57.309Z,17.13
2018-11-11T01:50:26.295Z,17.37
2018-11-11T01:52:55.144Z,16.77
2018-11-11T01:55:24.060Z,15.97
2018-11-11T01:57:53.003Z,16.67
2018-11-11T02:00:21.943Z,15.53
2018-11-11T02:02:50.841Z,15.93
2018-11-11T02:05:19.818Z,16.10
2018-11-11T02:07:49.221Z,17.63
2018-11-11T02:10:18.229Z,21.23
2018-11-11T02:12:47.572Z,24.90
2018-11-11T02:15:17.564Z,17.00
2018-11-11T02:17:46.527Z,16.70
2018-11-11T02:20:17.628Z,16.20
2018-11-11T02:22:47.851Z,16.60
2018-11-11T02:25:16.723Z,15.13
2018-11-11T02:27:46.008Z,15.17
2018-11-11T02:30:19.379Z,14.77
2018-11-11T02:32:49.807Z,13.60
2018-11-11T02:35:18.707Z,15.40
2018-11-11T02:37:47.683Z,14.20
2018-11-11T02:40:17.827Z,13.57
2018-11-11T02:42:47.214Z,13.77
2018-11-11T02:45:17.275Z,13.77
2018-11-11T02:47:46.184Z,15.23
2018-11-11T02:50:16.228Z,13.83
2018-11-11T02:52:45.685Z,13.83
2018-11-11T02:55:14.950Z,11.97
2018-11-11T02:57:44.298Z,12.57
2018-11-11T03:00:18.741Z,13.53
2018-11-11T03:02:48.028Z,14.70
2018-11-11T03:05:17.771Z,14.07
2018-11-11T03:07:46.748Z,14.60
2018-11-11T03:10:16.728Z,14.97
2018-11-11T03:12:46.514Z,14.47
2018-11-11T03:15:16.334Z,16.10
2018-11-11T03:17:45.269Z,20.67
2018-11-11T03:20:14.861Z,20.23
2018-11-11T03:22:43.787Z,22.30
2018-11-11T03:25:13.943Z,25.03
2018-11-11T03:27:43.198Z,21.60
2018-11-11T03:30:13.648Z,20.50
2018-11-11T03:32:42.619Z,17.97
2018-11-11T03:35:12.547Z,18.73
2018-11-11T03:37:42.009Z,15.80
2018-11-11T03:40:13.390Z,17.00
2018-11-11T03:42:42.532Z,16.10
2018-11-11T03:45:13.927Z,15.37
2018-11-11T03:47:43.683Z,14.23
2018-11-11T03:50:12.734Z,15.60
2018-11-11T03:52:41.932Z,17.70
2018-11-11T03:55:11.159Z,18.60
2018-11-11T03:57:40.068Z,16.50
2018-11-11T04:00:10.946Z,19.17
2018-11-11T04:02:39.874Z,17.97
2018-11-11T04:05:10.337Z,18.33
2018-11-11T04:07:39.702Z,16.97
2018-11-11T04:10:11.000Z,15.83
2018-11-11T04:12:40.206Z,16.30
2018-11-11T04:15:11.117Z,13.50
2018-11-11T04:17:40.236Z,12.80
2018-11-11T04:20:11.522Z,15.07
2018-11-11T04:22:40.431Z,13.13
2018-11-11T04:25:09.643Z,11.60
2018-11-11T04:27:38.608Z,10.10
2018-11-11T04:30:08.358Z,9.67
2018-11-11T04:32:37.222Z,9.30
2018-11-11T04:35:07.026Z,10.70
2018-11-11T04:37:36.017Z,11.93
2018-11-11T04:40:05.362Z,11.43
2018-11-11T04:42:34.355Z,11.97
2018-11-11T04:45:03.214Z,11.43
2018-11-11T04:47:32.142Z,11.33
2018-11-11T04:50:01.107Z,13.07
2018-11-11T04:52:30.021Z,10.90
2018-11-11T04:54:58.971Z,14.03
2018-11-11T04:57:27.947Z,16.57
2018-11-11T04:59:56.839Z,13.57
2018-11-11T05:02:25.765Z,11.87
2018-11-11T05:04:54.701Z,9.33
2018-11-11T05:07:23.574Z,11.97
2018-11-11T05:09:52.471Z,9.83
2018-11-11T05:12:21.409Z,9.10
2018-11-11T05:14:50.355Z,10.37
2018-11-11T05:17:19.281Z,9.73
2018-11-11T05:19:48.196Z,10.50
2018-11-11T05:22:17.113Z,13.30
2018-11-11T05:24:46.059Z,18.87
2018-11-11T05:27:14.972Z,15.33
2018-11-11T05:29:43.960Z,21.43
2018-11-11T05:32:12.825Z,23.77
2018-11-11T05:34:41.700Z,13.27
2018-11-11T05:37:10.574Z,9.60
2018-11-11T05:39:39.471Z,10.23
2018-11-11T05:42:08.410Z,8.50
2018-11-11T05:44:37.288Z,9.37
2018-11-11T05:47:06.487Z,8.83
2018-11-11T05:49:35.451Z,7.77
2018-11-11T05:52:04.420Z,8.70
2018-11-11T05:54:33.344Z,8.27
2018-11-11T05:57:02.202Z,9.00
2018-11-11T05:59:31.162Z,10.10
2018-11-11T06:02:00.090Z,8.37
2018-11-11T06:04:28.980Z,8.77
2018-11-11T06:06:57.928Z,9.37
2018-11-11T06:09:26.871Z,9.97
2018-11-11T06:11:55.729Z,8.83
2018-11-11T06:14:24.667Z,9.03
2018-11-11T06:16:53.603Z,9.30
2018-11-11T06:19:22.538Z,10.53
2018-11-11T06:21:51.642Z,11.30
2018-11-11T06:24:20.587Z,9.53
2018-11-11T06:26:49.614Z,8.73
2018-11-11T06:29:18.514Z,9.60
2018-11-11T06:31:47.554Z,10.27
2018-11-11T06:34:16.611Z,9.07
2018-11-11T06:36:46.695Z,9.77
2018-11-11T06:39:15.704Z,9.60
2018-11-11T06:41:44.705Z,10.63
2018-11-11T06:44:13.611Z,9.50
2018-11-11T06:46:42.514Z,9.70
2018-11-11T06:49:11.425Z,9.37
2018-11-11T06:51:40.484Z,8.50
2018-11-11T06:54:09.438Z,9.00
2018-11-11T06:56:38.392Z,6.93
2018-11-11T06:59:07.400Z,5.97
2018-11-11T07:01:36.285Z,6.13
2018-11-11T07:04:05.434Z,6.00
2018-11-11T07:06:34.411Z,8.23
2018-11-11T07:09:03.449Z,11.83
2018-11-11T07:11:32.378Z,14.77
2018-11-11T07:14:01.337Z,17.43
2018-11-11T07:16:30.210Z,14.97
2018-11-11T07:18:59.110Z,10.20
2018-11-11T07:21:28.100Z,7.20
2018-11-11T07:23:57.033Z,6.23
2018-11-11T07:26:25.975Z,5.80
2018-11-11T07:28:56.158Z,5.53
2018-11-11T07:31:25.128Z,5.70
2018-11-11T07:33:54.050Z,5.50
2018-11-11T07:36:23.116Z,4.60
2018-11-11T07:38:52.184Z,4.83
2018-11-11T07:41:21.138Z,5.43
2018-11-11T07:43:50.076Z,5.60
2018-11-11T07:46:19.081Z,5.30
2018-11-11T07:48:48.015Z,7.07
2018-11-11T07:51:16.960Z,27.37
2018-11-11T07:53:45.860Z,22.63
2018-11-11T07:56:14.786Z,16.63
2018-11-11T07:58:43.725Z,16.53
2018-11-11T08:01:12.598Z,12.83
2018-11-11T08:03:42.387Z,10.30
2018-11-11T08:06:11.294Z,6.40
2018-11-11T08:08:40.193Z,6.10
2018-11-11T08:11:20.389Z,6.00
2018-11-11T08:13:49.435Z,6.67
2018-11-11T08:16:18.459Z,4.70
2018-11-11T08:18:47.354Z,4.33
2018-11-11T08:21:16.200Z,5.70
2018-11-11T08:23:45.139Z,4.90
2018-11-11T08:26:14.051Z,6.37
2018-11-11T08:28:42.971Z,5.83
2018-11-11T08:31:12.242Z,14.23
2018-11-11T08:33:41.285Z,18.80
2018-11-11T08:36:10.211Z,14.97
2018-11-11T08:38:39.128Z,7.30
2018-11-11T08:41:08.076Z,5.17
2018-11-11T08:43:36.981Z,5.77
2018-11-11T08:46:05.954Z,6.50
2018-11-11T08:48:36.139Z,7.13
2018-11-11T08:51:05.074Z,7.57
2018-11-11T08:53:35.269Z,8.00
2018-11-11T08:56:05.602Z,7.40
2018-11-11T08:58:34.435Z,8.77
2018-11-11T09:01:03.351Z,8.00
2018-11-11T09:03:32.320Z,7.97
2018-11-11T09:06:01.298Z,7.63
2018-11-11T09:08:30.238Z,8.27
2018-11-11T09:10:59.145Z,7.77
2018-11-11T09:13:28.116Z,7.87
2018-11-11T09:15:57.061Z,7.67
2018-11-11T09:18:27.201Z,7.67
2018-11-11T09:20:56.140Z,10.40
2018-11-11T09:23:25.044Z,8.73
2018-11-11T09:25:55.202Z,8.17
2018-11-11T09:28:25.546Z,11.67
2018-11-11T09:30:54.447Z,10.97
2018-11-11T09:33:23.638Z,10.73
2018-11-11T09:35:52.513Z,9.30
2018-11-11T09:38:21.520Z,8.17
2018-11-11T09:40:50.439Z,9.40
2018-11-11T09:43:19.371Z,8.27
2018-11-11T09:45:48.261Z,8.97
2018-11-11T09:48:17.186Z,8.50
2018-11-11T09:50:46.144Z,8.37
2018-11-11T09:53:15.033Z,7.23
2018-11-11T09:55:43.937Z,7.10
2018-11-11T09:58:12.822Z,6.60
2018-11-11T10:00:41.730Z,7.93
2018-11-11T10:03:15.885Z,8.07
2018-11-11T10:05:48.332Z,7.97
2018-11-11T10:08:27.721Z,6.80
2018-11-11T10:11:03.558Z,6.57
2018-11-11T10:13:37.482Z,5.83
2018-11-11T10:16:10.453Z,4.60
2018-11-11T10:18:47.997Z,4.90
2018-11-11T10:21:22.823Z,5.37
2018-11-11T10:23:58.910Z,5.77
2018-11-11T10:26:35.029Z,5.70
2018-11-11T10:29:09.208Z,5.70
2018-11-11T10:31:48.467Z,5.40
2018-11-11T10:34:22.400Z,6.20
2018-11-11T10:37:00.371Z,5.93
2018-11-11T10:39:33.378Z,6.07
2018-11-11T10:42:07.377Z,5.97
2018-11-11T10:44:43.999Z,6.13
2018-11-11T10:47:48.536Z,5.73
2018-11-11T10:50:24.776Z,5.50
2018-11-11T10:52:53.725Z,5.43
2018-11-11T10:55:22.610Z,5.43
2018-11-11T10:57:51.604Z,6.10
2018-11-11T11:00:26.923Z,5.07
2018-11-11T11:02:57.230Z,6.10
2018-11-11T11:05:26.153Z,5.87
2018-11-11T11:07:55.796Z,5.43
2018-11-11T11:10:24.771Z,5.17
2018-11-11T11:12:53.751Z,4.83
2018-11-11T11:15:22.691Z,5.23
2018-11-11T11:17:51.558Z,5.20
2018-11-11T11:20:20.614Z,4.60
2018-11-11T11:22:49.578Z,3.80
2018-11-11T11:25:18.543Z,4.00
2018-11-11T11:27:47.417Z,3.60
2018-11-11T11:30:16.385Z,4.47
2018-11-11T11:32:45.325Z,3.97
2018-11-11T11:35:14.287Z,3.90
2018-11-11T11:37:43.185Z,4.33
2018-11-11T11:40:12.130Z,4.20
2018-11-11T11:42:41.038Z,4.00
2018-11-11T11:45:11.160Z,3.20
2018-11-11T11:47:40.243Z,3.67
2018-11-11T11:50:10.764Z,3.67
2018-11-11T11:52:39.693Z,3.40
2018-11-11T11:55:09.388Z,3.60
2018-11-11T11:57:38.347Z,3.57
2018-11-11T12:00:09.610Z,3.40
2018-11-11T12:02:38.845Z,3.10
2018-11-11T12:05:08.935Z,3.20
2018-11-11T12:07:37.851Z,3.47
2018-11-11T12:10:09.411Z,3.20
2018-11-11T12:12:38.804Z,4.37
2018-11-11T12:15:08.620Z,4.27
2018-11-11T12:17:37.687Z,3.87
2018-11-11T12:20:07.347Z,3.93
2018-11-11T12:22:36.257Z,3.93
2018-11-11T12:25:05.778Z,3.20
2018-11-11T12:27:34.824Z,3.37
2018-11-11T12:30:03.832Z,3.13
2018-11-11T12:32:32.755Z,3.03
2018-11-11T12:35:01.801Z,3.20
2018-11-11T12:37:30.848Z,2.87
2018-11-11T12:39:59.860Z,3.33
2018-11-11T12:42:28.734Z,3.60
2018-11-11T12:44:57.678Z,4.33
2018-11-11T12:47:26.807Z,3.13
2018-11-11T12:49:56.162Z,3.77
2018-11-11T12:52:25.442Z,4.00
2018-11-11T12:54:54.606Z,3.80
2018-11-11T12:57:23.815Z,3.70
2018-11-11T12:59:52.989Z,3.70
2018-11-11T13:02:21.986Z,3.80
2018-11-11T13:04:51.114Z,3.53
2018-11-11T13:07:20.270Z,4.23
2018-11-11T13:09:49.460Z,3.37
2018-11-11T13:12:18.600Z,3.90
2018-11-11T13:14:49.043Z,4.13
2018-11-11T13:17:18.022Z,4.20
2018-11-11T13:19:46.981Z,3.60
2018-11-11T13:22:16.073Z,3.90
2018-11-11T13:24:44.887Z,4.00
2018-11-11T13:27:13.723Z,4.10
2018-11-11T13:29:44.051Z,4.57
2018-11-11T13:32:12.924Z,4.33
2018-11-11T13:34:41.921Z,4.93
2018-11-11T13:37:10.924Z,4.37
2018-11-11T13:39:39.870Z,4.30
2018-11-11T13:42:08.775Z,3.97
2018-11-11T13:44:37.691Z,4.50
2018-11-11T13:47:06.782Z,4.53
2018-11-11T13:49:35.721Z,5.00
2018-11-11T13:52:04.597Z,4.87
2018-11-11T13:54:33.566Z,4.83
2018-11-11T13:57:02.645Z,4.93
2018-11-11T13:59:31.656Z,5.30
2018-11-11T14:02:00.695Z,5.57
2018-11-11T14:04:29.616Z,5.20
2018-11-11T14:07:05.454Z,4.80
2018-11-11T14:09:34.431Z,4.83
2018-11-11T14:12:03.470Z,4.67
2018-11-11T14:14:33.651Z,4.67
2018-11-11T14:17:02.604Z,5.40
2018-11-11T14:19:31.611Z,5.83
2018-11-11T14:22:00.619Z,5.43
2018-11-11T14:24:29.608Z,5.87
2018-11-11T14:26:58.699Z,5.63
2018-11-11T14:29:27.826Z,6.40
2018-11-11T14:31:56.865Z,5.90
2018-11-11T14:34:25.916Z,6.47
2018-11-11T14:36:55.124Z,6.57
2018-11-11T14:39:24.241Z,7.17
2018-11-11T14:41:53.202Z,6.47
2018-11-11T14:44:22.241Z,6.40
2018-11-11T14:46:51.349Z,7.53
2018-11-11T14:49:20.368Z,7.30
2018-11-11T14:51:49.362Z,7.47
2018-11-11T14:54:18.316Z,7.17
2018-11-11T14:56:47.274Z,7.60
2018-11-11T14:59:16.188Z,6.33
2018-11-11T15:01:45.152Z,6.77
2018-11-11T15:04:15.248Z,7.03
2018-11-11T15:06:44.239Z,7.53
2018-11-11T15:09:13.840Z,7.07
2018-11-11T15:11:42.818Z,7.37
2018-11-11T15:14:12.399Z,7.27
2018-11-11T15:16:41.312Z,7.10
2018-11-11T15:19:10.399Z,8.27
2018-11-11T15:21:39.309Z,9.20
2018-11-11T15:24:08.323Z,9.40
2018-11-11T15:26:37.213Z,8.87
2018-11-11T15:29:06.158Z,10.70
2018-11-11T15:31:35.072Z,9.40
2018-11-11T15:34:03.997Z,9.40
2018-11-11T15:36:33.371Z,9.43
2018-11-11T15:39:02.309Z,9.03
2018-11-11T15:41:31.434Z,9.20
2018-11-11T15:44:00.483Z,10.53
2018-11-11T15:46:29.551Z,11.73
2018-11-11T15:48:58.504Z,9.90
2018-11-11T15:51:27.694Z,9.10
2018-11-11T15:53:56.810Z,10.00
2018-11-11T15:56:25.755Z,10.90
2018-11-11T15:58:54.758Z,10.57
2018-11-11T16:01:23.649Z,11.80
2018-11-11T16:03:52.556Z,9.97
2018-11-11T16:06:21.540Z,12.23
2018-11-11T16:08:50.706Z,11.50
2018-11-11T16:11:19.583Z,11.33
2018-11-11T16:13:49.968Z,10.23
2018-11-11T16:16:18.911Z,12.37
2018-11-11T16:18:47.982Z,11.30
2018-11-11T16:21:16.870Z,13.07
2018-11-11T16:23:46.029Z,12.73
2018-11-11T16:26:14.987Z,11.67
2018-11-11T16:28:43.927Z,9.40
2018-11-11T16:31:12.870Z,10.40
2018-11-11T16:33:42.041Z,13.60
2018-11-11T16:36:11.016Z,12.40
2018-11-11T16:38:40.028Z,12.10
2018-11-11T16:41:10.467Z,10.30
2018-11-11T16:43:39.193Z,10.67
2018-11-11T16:46:08.293Z,9.80
2018-11-11T16:48:38.522Z,10.77
2018-11-11T16:51:07.581Z,9.97
2018-11-11T16:53:36.692Z,10.73
2018-11-11T16:56:12.242Z,10.67
2018-11-11T16:58:41.628Z,11.07
2018-11-11T17:01:10.548Z,11.77
2018-11-11T17:03:39.843Z,12.40
2018-11-11T17:06:08.959Z,13.43
2018-11-11T17:08:43.963Z,12.63
2018-11-11T17:11:14.245Z,14.20
2018-11-11T17:13:44.644Z,16.53
2018-11-11T17:16:13.704Z,11.60
2018-11-11T17:18:44.512Z,10.60
2018-11-11T17:21:13.691Z,10.13
2018-11-11T17:23:42.788Z,10.83
2018-11-11T17:26:12.008Z,11.43
2018-11-11T17:28:41.097Z,11.50
2018-11-11T17:31:11.621Z,13.40
2018-11-11T17:33:40.622Z,14.17
2018-11-11T17:36:09.576Z,14.23
2018-11-11T17:38:39.923Z,13.97
2018-11-11T17:41:08.914Z,14.93
2018-11-11T17:43:39.292Z,13.90
2018-11-11T17:46:09.605Z,14.03
2018-11-11T17:48:38.844Z,14.70
2018-11-11T17:51:07.831Z,16.07
2018-11-11T17:53:37.010Z,14.67
2018-11-11T17:56:06.184Z,14.53
2018-11-11T17:58:35.221Z,14.07
2018-11-11T18:01:04.391Z,13.53
2018-11-11T18:03:33.679Z,13.27
2018-11-11T18:06:02.587Z,14.93
2018-11-11T18:08:31.587Z,13.93
2018-11-11T18:11:00.597Z,11.83
2018-11-11T18:13:29.633Z,12.70
2018-11-11T18:15:58.577Z,13.63
2018-11-11T18:18:27.552Z,13.53
2018-11-11T18:20:56.572Z,13.50
2018-11-11T18:23:25.480Z,12.63
2018-11-11T18:25:54.404Z,12.27
2018-11-11T18:28:23.527Z,13.27
2018-11-11T18:30:52.461Z,13.70
2018-11-11T18:33:21.449Z,14.00
2018-11-11T18:35:50.395Z,13.87
2018-11-11T18:38:19.520Z,14.17
2018-11-11T18:40:48.440Z,14.73
2018-11-11T18:43:17.399Z,14.80
2018-11-11T18:45:46.522Z,15.27
2018-11-11T18:48:15.600Z,14.93
2018-11-11T18:50:44.617Z,14.07
2018-11-11T18:53:13.590Z,15.10
2018-11-11T18:55:42.609Z,14.47
2018-11-11T18:58:11.571Z,14.47
2018-11-11T19:00:40.649Z,14.17
2018-11-11T19:03:09.731Z,14.80
2018-11-11T19:05:38.669Z,14.17
2018-11-11T19:08:07.643Z,13.07
2018-11-11T19:10:36.762Z,12.23
2018-11-11T19:13:13.709Z,12.43
2018-11-11T19:15:42.985Z,13.40
2018-11-11T19:18:11.914Z,11.93
2018-11-11T19:20:40.800Z,17.77
2018-11-11T19:23:09.790Z,17.97
2018-11-11T19:25:38.764Z,17.43
2018-11-11T19:28:07.713Z,18.20
2018-11-11T19:30:36.806Z,15.43
2018-11-11T19:33:05.824Z,17.83
2018-11-11T19:35:34.819Z,13.07
2018-11-11T19:38:03.896Z,17.20
2018-11-11T19:40:32.959Z,12.80
2018-11-11T19:43:02.430Z,17.53
2018-11-11T19:45:32.118Z,21.97
2018-11-11T19:48:01.217Z,23.67
2018-11-11T19:50:30.837Z,23.73
2018-11-11T19:53:00.136Z,21.43
2018-11-11T19:55:29.141Z,22.20
2018-11-11T19:57:58.077Z,21.83
2018-11-11T20:00:29.779Z,19.10
2018-11-11T20:02:59.678Z,20.30
2018-11-11T20:05:28.701Z,19.17
2018-11-11T20:07:58.646Z,20.50
2018-11-11T20:10:29.129Z,21.53
2018-11-11T20:12:58.436Z,23.37
2018-11-11T20:15:28.783Z,21.67
2018-11-11T20:17:57.702Z,23.70
2018-11-11T20:20:29.835Z,26.87
2018-11-11T20:22:58.867Z,28.73
2018-11-11T20:25:27.941Z,23.13
2018-11-11T20:27:57.297Z,22.20
2018-11-11T20:30:27.884Z,23.43
2018-11-11T20:32:57.105Z,22.60
2018-11-11T20:35:27.530Z,26.37
2018-11-11T20:37:56.497Z,25.57
2018-11-11T20:40:26.311Z,24.50
2018-11-11T20:42:57.032Z,19.87
2018-11-11T20:45:27.594Z,21.03
2018-11-11T20:47:56.702Z,23.43
2018-11-11T20:50:26.988Z,24.63
2018-11-11T20:52:57.588Z,23.47
2018-11-11T20:55:26.563Z,25.17
2018-11-11T20:57:55.642Z,25.97
2018-11-11T21:00:26.886Z,23.60
2018-11-11T21:02:55.910Z,22.63
2018-11-11T21:05:26.124Z,22.73
2018-11-11T21:07:55.077Z,22.73
2018-11-11T21:10:25.423Z,24.33
2018-11-11T21:12:54.589Z,23.33
2018-11-11T21:15:24.738Z,23.73
2018-11-11T21:17:53.679Z,28.57
2018-11-11T21:20:26.973Z,29.63
2018-11-11T21:22:55.880Z,28.97
2018-11-11T21:25:24.951Z,25.77
2018-11-11T21:27:54.252Z,24.17
2018-11-11T21:30:24.478Z,23.57
2018-11-11T21:32:53.649Z,20.97
2018-11-11T21:35:22.543Z,20.83
2018-11-11T21:37:51.518Z,18.73
2018-11-11T21:40:21.834Z,20.57
2018-11-11T21:42:51.309Z,17.50
2018-11-11T21:45:22.777Z,17.97
2018-11-11T21:47:51.727Z,17.77
2018-11-11T21:50:22.042Z,16.60
2018-11-11T21:53:55.611Z,15.60
2018-11-11T21:56:24.552Z,16.27
2018-11-11T21:58:53.568Z,16.30
2018-11-11T22:01:22.644Z,15.67
2018-11-11T22:03:51.636Z,16.10
2018-11-11T22:06:20.576Z,15.30
2018-11-11T22:08:49.475Z,15.27
2018-11-11T22:11:18.345Z,14.77
2018-11-11T22:13:47.248Z,15.27
2018-11-11T22:16:16.135Z,16.30
2018-11-11T22:18:45.094Z,16.50
2018-11-11T22:21:14.159Z,14.30
2018-11-11T22:23:43.201Z,16.37
2018-11-11T22:26:12.212Z,15.60
2018-11-11T22:28:41.225Z,16.33
2018-11-11T22:31:10.213Z,15.57
2018-11-11T22:33:39.273Z,15.87
2018-11-11T22:36:08.360Z,15.83
2018-11-11T22:38:37.263Z,17.47
2018-11-11T22:41:06.275Z,18.53
2018-11-11T22:43:36.444Z,18.63
2018-11-11T22:46:05.472Z,21.77
2018-11-11T22:48:34.401Z,18.47
2018-11-11T22:51:03.427Z,22.17
2018-11-11T22:53:32.447Z,23.40
2018-11-11T22:56:01.423Z,21.53
2018-11-11T22:58:30.356Z,21.73
2018-11-11T23:01:04.778Z,23.73
2018-11-11T23:03:33.685Z,21.90
2018-11-11T23:06:02.611Z,22.53
2018-11-11T23:08:31.515Z,24.03
2018-11-11T23:11:00.394Z,23.53
2018-11-11T23:13:29.283Z,23.83
2018-11-11T23:15:58.307Z,24.47
2018-11-11T23:18:27.255Z,23.10
2018-11-11T23:20:56.289Z,22.03
2018-11-11T23:23:25.278Z,22.40
2018-11-11T23:25:54.174Z,21.63
2018-11-11T23:28:23.195Z,20.60
2018-11-11T23:30:52.182Z,19.60
2018-11-11T23:33:21.068Z,19.90
2018-11-11T23:35:50.008Z,19.30
2018-11-11T23:38:19.002Z,24.20
2018-11-11T23:40:47.935Z,17.13
2018-11-11T23:43:16.920Z,17.40
2018-11-11T23:45:46.296Z,16.77
2018-11-11T23:48:15.211Z,16.33
2018-11-11T23:50:44.135Z,15.90
2018-11-11T23:53:13.156Z,16.90
2018-11-11T23:55:42.080Z,19.30
2018-11-11T23:58:11.046Z,16.50
